Time;durP1;ratioP1;P1;durP2;ratioP2;P2;SDS_P1;SDS_P2;PMS_P1;PMS_P2;Temp;Humidity;BMP_temperature;BMP_pressure;BME280_temperature;BME280_humidity;BME280_pressure;Samples;Min_cycle;Max_cycle;Signal;HPM_P1;HPM_P2
2021/06/21 00:00:15;;;;;;;6.63;3.20;;;22.00;97.50;;;;;;5042964;28;21186;-48
2021/06/21 00:02:42;;;;;;;5.30;3.33;;;22.00;97.40;;;;;;5036893;28;20626;-48
2021/06/21 00:05:10;;;;;;;4.27;2.77;;;21.90;97.60;;;;;;5046824;28;20645;-49
2021/06/21 00:07:37;;;;;;;6.20;2.83;;;21.90;97.50;;;;;;5048395;28;20688;-47
2021/06/21 00:10:06;;;;;;;7.13;2.60;;;21.80;97.30;;;;;;5048481;28;20959;-49
2021/06/21 00:12:35;;;;;;;6.57;2.77;;;21.80;97.30;;;;;;5050891;28;20688;-48
2021/06/21 00:15:02;;;;;;;7.50;3.37;;;21.80;97.50;;;;;;5050324;28;20694;-48
2021/06/21 00:17:29;;;;;;;5.43;2.87;;;21.70;97.40;;;;;;5051192;28;20753;-49
2021/06/21 00:19:56;;;;;;;8.80;3.90;;;21.70;97.40;;;;;;5048418;28;20631;-48
2021/06/21 00:22:24;;;;;;;5.53;3.20;;;21.70;97.30;;;;;;5037420;28;20984;-48
2021/06/21 00:24:51;;;;;;;5.93;3.20;;;21.70;97.30;;;;;;5047236;28;20654;-48
2021/06/21 00:27:19;;;;;;;2.93;2.30;;;21.70;97.30;;;;;;5035748;28;20695;-48
2021/06/21 00:29:48;;;;;;;6.27;2.40;;;21.70;97.30;;;;;;5040272;28;20665;-49
2021/06/21 00:32:15;;;;;;;6.63;3.13;;;21.70;97.10;;;;;;5032898;28;20681;-47
2021/06/21 00:34:42;;;;;;;10.37;3.20;;;21.70;97.10;;;;;;5035412;28;20656;-47
2021/06/21 00:37:09;;;;;;;7.57;3.50;;;21.70;96.90;;;;;;5031406;28;21246;-48
2021/06/21 00:39:37;;;;;;;4.40;2.80;;;21.70;96.70;;;;;;5046834;28;20670;-48
2021/06/21 00:42:05;;;;;;;10.07;3.23;;;21.60;96.80;;;;;;5039395;28;20642;-48
2021/06/21 00:44:32;;;;;;;6.87;2.70;;;21.60;96.80;;;;;;5038186;28;20755;-48
2021/06/21 00:47:01;;;;;;;7.23;3.43;;;21.60;96.60;;;;;;5048332;28;20704;-47
2021/06/21 00:49:28;;;;;;;5.70;2.30;;;21.60;96.50;;;;;;5050036;28;20656;-48
2021/06/21 00:51:57;;;;;;;6.93;2.50;;;21.60;96.20;;;;;;5050304;28;21002;-48
2021/06/21 00:54:24;;;;;;;5.13;2.43;;;21.60;96.00;;;;;;5046164;28;20692;-48
2021/06/21 00:56:51;;;;;;;2.83;2.00;;;21.60;96.00;;;;;;5040023;28;20757;-48
2021/06/21 00:59:18;;;;;;;7.70;2.60;;;21.60;95.90;;;;;;5030811;28;20631;-47
2021/06/21 01:01:45;;;;;;;6.60;3.10;;;21.60;95.80;;;;;;5045561;28;21194;-49
2021/06/21 01:04:14;;;;;;;6.80;2.00;;;21.50;95.60;;;;;;5045868;28;20701;-47
2021/06/21 01:06:41;;;;;;;6.50;3.00;;;21.50;95.80;;;;;;5039018;28;21218;-49
2021/06/21 01:09:08;;;;;;;8.17;3.40;;;21.60;95.80;;;;;;5045940;28;20630;-48
2021/06/21 01:11:44;;;;;;;7.80;2.37;;;21.60;95.70;;;;;;5043739;28;20630;-47
2021/06/21 01:14:15;;;;;;;4.70;2.30;;;21.60;95.60;;;;;;5041417;28;20679;-48
2021/06/21 01:16:45;;;;;;;10.13;4.20;;;21.50;95.60;;;;;;5049714;28;21236;-48
2021/06/21 01:19:18;;;;;;;6.37;2.60;;;21.50;95.60;;;;;;5049214;28;20687;-48
2021/06/21 01:22:24;;;;;;;5.23;3.00;;;21.50;95.80;;;;;;5049276;28;20795;-48
2021/06/21 01:25:13;;;;;;;7.30;2.33;;;21.50;95.70;;;;;;5049131;28;20723;-49
2021/06/21 01:27:50;;;;;;;6.80;2.40;;;21.50;95.60;;;;;;5030054;28;20665;-48
2021/06/21 01:30:19;;;;;;;7.30;3.47;;;21.60;95.80;;;;;;5034393;28;20622;-48
2021/06/21 01:32:49;;;;;;;3.80;2.23;;;21.50;96.00;;;;;;5036136;28;20707;-48
2021/06/21 01:35:19;;;;;;;5.53;2.40;;;21.50;95.90;;;;;;5041097;28;20658;-47
2021/06/21 01:37:46;;;;;;;4.87;2.30;;;21.50;96.10;;;;;;5048891;28;20662;-49
2021/06/21 01:40:15;;;;;;;10.67;3.70;;;21.50;96.00;;;;;;5047356;28;20765;-48
2021/06/21 01:42:42;;;;;;;7.90;2.93;;;21.50;96.00;;;;;;5044579;28;20654;-48
2021/06/21 01:45:11;;;;;;;3.13;2.47;;;21.50;96.20;;;;;;5048627;28;20661;-48
2021/06/21 01:47:38;;;;;;;11.77;3.47;;;21.50;96.00;;;;;;5030026;28;20650;-48
2021/06/21 01:50:07;;;;;;;5.73;3.37;;;21.40;96.30;;;;;;5044112;28;21001;-47
2021/06/21 01:52:36;;;;;;;3.40;2.73;;;21.40;96.30;;;;;;5041436;28;20687;-47
2021/06/21 01:55:04;;;;;;;9.17;3.67;;;21.40;96.20;;;;;;5048574;28;21200;-47
2021/06/21 01:57:32;;;;;;;8.27;3.27;;;21.30;96.30;;;;;;5039262;28;20631;-47
2021/06/21 02:00:02;;;;;;;7.27;3.00;;;21.30;96.40;;;;;;5035723;28;20638;-47
2021/06/21 02:02:29;;;;;;;6.23;3.00;;;21.30;96.50;;;;;;5031281;28;20669;-47
2021/06/21 02:04:56;;;;;;;6.57;3.33;;;21.20;96.50;;;;;;5047727;28;20683;-46
2021/06/21 02:07:25;;;;;;;10.27;3.63;;;21.30;96.70;;;;;;5040116;28;20996;-47
2021/06/21 02:09:53;;;;;;;7.40;3.57;;;21.30;96.80;;;;;;5038790;28;20660;-47
2021/06/21 02:12:20;;;;;;;9.67;3.90;;;21.40;96.90;;;;;;5041000;28;20655;-48
2021/06/21 02:14:49;;;;;;;8.47;3.40;;;21.60;96.60;;;;;;5032609;28;20631;-48
2021/06/21 02:17:17;;;;;;;9.17;3.27;;;21.60;96.30;;;;;;5032048;28;21219;-47
2021/06/21 02:19:44;;;;;;;8.57;3.53;;;21.70;96.30;;;;;;5045062;28;21182;-48
2021/06/21 02:22:11;;;;;;;7.70;2.93;;;22.00;96.10;;;;;;5036202;28;20662;-47
2021/06/21 02:24:40;;;;;;;7.53;4.47;;;22.30;95.40;;;;;;5040612;28;21244;-46
2021/06/21 02:27:07;;;;;;;11.90;4.30;;;22.30;95.10;;;;;;5048214;28;20661;-47
2021/06/21 02:29:35;;;;;;;4.27;2.70;;;22.40;94.60;;;;;;5047941;28;20642;-47
2021/06/21 02:32:02;;;;;;;8.30;2.57;;;22.40;94.70;;;;;;5036294;28;20631;-47
2021/06/21 02:34:29;;;;;;;6.97;3.23;;;22.40;94.40;;;;;;5037363;28;20623;-47
2021/06/21 02:36:57;;;;;;;9.13;3.43;;;22.40;94.60;;;;;;5040380;28;20711;-47
2021/06/21 02:39:24;;;;;;;11.07;3.50;;;22.50;94.00;;;;;;5043001;28;21224;-47
2021/06/21 02:41:52;;;;;;;7.97;4.30;;;22.50;93.60;;;;;;5048496;28;20637;-48
2021/06/21 02:44:20;;;;;;;8.03;3.07;;;22.60;93.70;;;;;;5034897;28;20619;-48
2021/06/21 02:46:47;;;;;;;8.57;3.23;;;22.50;93.70;;;;;;5035450;28;20670;-48
2021/06/21 02:49:14;;;;;;;10.10;3.67;;;22.30;93.10;;;;;;5034879;28;20631;-48
2021/06/21 02:51:43;;;;;;;5.80;2.47;;;22.30;94.00;;;;;;5032101;28;20650;-48
2021/06/21 02:54:12;;;;;;;7.00;3.40;;;22.30;93.70;;;;;;5038957;28;20685;-48
2021/06/21 02:56:42;;;;;;;11.33;4.13;;;22.20;93.70;;;;;;5044922;28;20690;-48
2021/06/21 02:59:11;;;;;;;6.93;2.60;;;22.20;94.00;;;;;;5041107;28;20657;-48
2021/06/21 03:01:44;;;;;;;6.93;2.87;;;22.20;93.80;;;;;;5042751;28;20718;-48
2021/06/21 03:04:12;;;;;;;11.47;3.00;;;22.10;93.80;;;;;;5038319;28;20665;-48
2021/06/21 03:06:39;;;;;;;7.07;3.57;;;21.90;94.00;;;;;;5048328;28;21272;-49
2021/06/21 03:09:07;;;;;;;6.40;2.60;;;22.10;94.60;;;;;;5039484;28;20722;-48
2021/06/21 03:11:34;;;;;;;8.20;3.00;;;22.20;94.30;;;;;;5034280;28;21111;-48
2021/06/21 03:14:02;;;;;;;7.57;3.23;;;22.30;94.00;;;;;;5028927;28;20678;-49
2021/06/21 03:16:31;;;;;;;5.40;2.60;;;22.30;93.90;;;;;;5036837;28;20690;-48
2021/06/21 03:18:58;;;;;;;11.93;3.70;;;22.30;93.80;;;;;;5045174;28;20688;-48
2021/06/21 03:21:25;;;;;;;4.70;2.80;;;22.00;93.60;;;;;;5037577;28;20655;-48
2021/06/21 03:23:53;;;;;;;6.80;2.70;;;22.10;94.60;;;;;;5030719;28;20662;-48
2021/06/21 03:26:24;;;;;;;6.50;3.00;;;22.10;94.20;;;;;;5033433;28;20697;-48
2021/06/21 03:28:52;;;;;;;7.40;3.60;;;22.10;93.90;;;;;;5047941;28;20662;-48
2021/06/21 03:31:19;;;;;;;8.70;2.93;;;22.10;94.00;;;;;;5033368;28;20619;-48
2021/06/21 03:33:47;;;;;;;5.93;3.00;;;22.20;94.80;;;;;;5044219;28;20752;-49
2021/06/21 03:36:15;;;;;;;8.83;3.50;;;22.20;94.10;;;;;;5051089;28;20686;-49
2021/06/21 03:38:42;;;;;;;10.70;2.83;;;22.20;94.00;;;;;;5051316;28;20658;-49
2021/06/21 03:41:09;;;;;;;6.80;3.43;;;22.50;94.00;;;;;;5042324;28;20663;-49
2021/06/21 03:43:37;;;;;;;8.27;3.07;;;22.70;93.30;;;;;;5051314;28;20710;-49
2021/06/21 03:46:05;;;;;;;8.53;3.33;;;22.70;93.10;;;;;;5046315;28;20698;-49
2021/06/21 03:48:32;;;;;;;7.17;3.10;;;22.60;92.90;;;;;;5039544;28;20653;-48
2021/06/21 03:51:00;;;;;;;7.67;3.47;;;22.60;92.90;;;;;;5037444;28;20981;-49
2021/06/21 03:53:28;;;;;;;7.80;3.13;;;22.50;93.40;;;;;;5049128;28;20677;-49
2021/06/21 03:55:55;;;;;;;10.33;3.37;;;22.50;93.30;;;;;;5045156;28;21213;-48
2021/06/21 03:58:23;;;;;;;9.70;3.73;;;22.40;93.30;;;;;;5039262;28;20630;-48
2021/06/21 04:00:50;;;;;;;11.13;4.00;;;22.20;93.60;;;;;;5041553;28;20660;-49
2021/06/21 04:03:17;;;;;;;4.83;3.33;;;22.10;93.90;;;;;;5045435;28;20656;-49
2021/06/21 04:05:44;;;;;;;6.40;3.50;;;22.20;94.20;;;;;;5044443;28;21200;-49
2021/06/21 04:08:16;;;;;;;8.27;3.83;;;22.10;93.90;;;;;;5038767;28;20733;-48
2021/06/21 04:10:43;;;;;;;10.03;4.00;;;22.30;94.10;;;;;;5045466;28;20680;-48
2021/06/21 04:13:11;;;;;;;12.03;4.17;;;22.30;93.80;;;;;;5040613;28;20630;-49
2021/06/21 04:15:38;;;;;;;8.23;3.80;;;22.40;93.80;;;;;;5050199;28;20747;-49
2021/06/21 04:18:07;;;;;;;10.93;4.17;;;22.40;93.60;;;;;;5043386;28;20657;-49
2021/06/21 04:20:34;;;;;;;9.23;4.23;;;22.20;93.70;;;;;;5040515;28;20707;-48
2021/06/21 04:23:01;;;;;;;9.80;4.10;;;22.20;94.10;;;;;;5039982;28;20754;-48
2021/06/21 04:25:30;;;;;;;7.90;3.37;;;22.30;94.00;;;;;;5039641;28;20682;-49
2021/06/21 04:27:57;;;;;;;7.20;3.43;;;22.60;93.70;;;;;;5043723;28;20669;-50
2021/06/21 04:30:25;;;;;;;8.50;3.80;;;22.40;93.40;;;;;;5049485;28;20623;-49
2021/06/21 04:32:53;;;;;;;10.00;3.83;;;22.30;93.70;;;;;;5042390;28;20980;-49
2021/06/21 04:35:22;;;;;;;12.43;3.63;;;22.30;93.90;;;;;;5035169;28;20682;-48
2021/06/21 04:37:49;;;;;;;6.33;2.97;;;22.40;93.80;;;;;;5037436;28;20635;-49
2021/06/21 04:40:18;;;;;;;7.23;3.30;;;22.40;93.80;;;;;;5036532;28;20638;-49
2021/06/21 04:42:46;;;;;;;11.33;3.77;;;22.30;93.90;;;;;;5047908;28;20630;-49
2021/06/21 04:45:14;;;;;;;12.33;4.27;;;22.30;94.10;;;;;;5050178;28;20658;-49
2021/06/21 04:47:42;;;;;;;12.07;5.00;;;22.50;93.70;;;;;;5049140;28;20673;-48
2021/06/21 04:50:12;;;;;;;11.53;3.77;;;22.60;93.40;;;;;;5044839;28;20627;-48
2021/06/21 04:52:41;;;;;;;6.60;3.43;;;22.60;93.70;;;;;;5031879;28;20704;-48
2021/06/21 04:55:10;;;;;;;16.43;5.73;;;22.60;93.30;;;;;;5048958;28;21232;-48
2021/06/21 04:57:37;;;;;;;11.90;4.13;;;22.70;93.00;;;;;;5049486;28;20634;-49
2021/06/21 05:00:08;;;;;;;5.67;3.33;;;22.70;93.10;;;;;;5050767;28;21175;-48
2021/06/21 05:02:35;;;;;;;6.70;3.50;;;22.80;93.20;;;;;;5034309;28;20627;-48
2021/06/21 05:05:02;;;;;;;7.60;4.10;;;22.70;92.80;;;;;;5038374;28;20631;-49
2021/06/21 05:07:29;;;;;;;11.00;3.80;;;22.50;93.10;;;;;;5030696;28;20658;-48
2021/06/21 05:09:56;;;;;;;11.60;4.03;;;22.50;93.60;;;;;;5038817;28;20692;-53
2021/06/21 05:12:24;;;;;;;10.00;3.70;;;22.60;93.30;;;;;;5050903;28;20672;-48
2021/06/21 05:14:51;;;;;;;4.00;3.40;;;22.50;93.30;;;;;;5049939;28;20989;-48
2021/06/21 05:17:19;;;;;;;7.17;4.20;;;22.70;93.30;;;;;;5049534;28;20654;-48
2021/06/21 05:19:47;;;;;;;9.47;3.77;;;22.60;93.10;;;;;;5048067;28;20642;-48
2021/06/21 05:22:14;;;;;;;9.27;4.17;;;22.60;93.50;;;;;;5030435;28;20626;-47
2021/06/21 05:24:41;;;;;;;6.97;3.77;;;23.10;93.00;;;;;;5030279;28;21199;-49
2021/06/21 05:27:09;;;;;;;6.67;3.43;;;23.00;92.60;;;;;;5030893;28;20671;-49
2021/06/21 05:29:36;;;;;;;10.07;4.60;;;23.10;92.80;;;;;;5030777;28;20998;-49
2021/06/21 05:32:04;;;;;;;9.97;3.50;;;23.10;92.40;;;;;;5029985;28;20662;-51
2021/06/21 05:34:32;;;;;;;8.30;3.80;;;23.10;92.40;;;;;;5030560;28;20680;-48
2021/06/21 05:36:59;;;;;;;9.60;3.20;;;22.80;92.10;;;;;;5030036;28;20987;-49
2021/06/21 05:39:27;;;;;;;7.10;3.23;;;22.50;92.70;;;;;;5035023;28;20622;-46
2021/06/21 05:41:54;;;;;;;10.10;4.13;;;22.50;93.20;;;;;;5049557;28;20622;-49
2021/06/21 05:44:21;;;;;;;13.90;4.47;;;22.60;93.40;;;;;;5049631;28;20626;-48
2021/06/21 05:46:48;;;;;;;5.30;3.07;;;22.70;93.30;;;;;;5049547;28;21032;-49
2021/06/21 05:49:16;;;;;;;11.60;4.07;;;22.80;92.90;;;;;;5048674;28;21236;-48
2021/06/21 05:51:44;;;;;;;8.00;3.70;;;22.90;92.90;;;;;;5046177;28;20635;-48
2021/06/21 05:54:11;;;;;;;14.77;4.60;;;22.80;92.40;;;;;;5030338;28;21212;-50
2021/06/21 05:56:39;;;;;;;8.07;4.70;;;23.00;92.50;;;;;;5029841;28;20659;-48
2021/06/21 05:59:06;;;;;;;10.00;5.63;;;23.00;92.10;;;;;;5030184;28;20632;-49
2021/06/21 06:01:33;;;;;;;9.20;3.53;;;22.70;92.10;;;;;;5029948;28;20631;-50
2021/06/21 06:04:00;;;;;;;12.80;4.60;;;22.70;92.20;;;;;;5029719;28;20642;-49
2021/06/21 06:06:28;;;;;;;7.63;3.47;;;22.80;92.30;;;;;;5029568;28;20721;-47
2021/06/21 06:08:56;;;;;;;5.93;3.60;;;22.70;92.50;;;;;;5030566;28;20685;-48
2021/06/21 06:11:23;;;;;;;8.40;2.90;;;22.70;92.60;;;;;;5047481;28;20698;-48
2021/06/21 06:13:51;;;;;;;7.33;3.30;;;22.80;92.40;;;;;;5048047;28;20986;-48
2021/06/21 06:16:18;;;;;;;9.43;4.20;;;22.90;92.20;;;;;;5051004;28;20653;-48
2021/06/21 06:18:45;;;;;;;6.60;2.20;;;22.90;92.20;;;;;;5049943;28;20610;-48
2021/06/21 06:21:13;;;;;;;10.57;4.00;;;23.10;92.20;;;;;;5048985;28;20634;-49
2021/06/21 06:23:40;;;;;;;8.47;3.47;;;23.30;91.50;;;;;;5029426;28;20646;-47
2021/06/21 06:26:09;;;;;;;5.50;3.07;;;23.30;91.60;;;;;;5041846;28;20704;-47
2021/06/21 06:28:38;;;;;;;7.20;4.03;;;23.30;91.60;;;;;;5049992;28;21312;-49
2021/06/21 06:31:06;;;;;;;4.03;2.73;;;23.20;91.70;;;;;;5050089;28;20630;-47
2021/06/21 06:33:33;;;;;;;5.03;3.17;;;23.30;92.20;;;;;;5049630;28;20664;-47
2021/06/21 06:36:00;;;;;;;10.77;3.83;;;23.40;91.30;;;;;;5049110;28;20666;-47
2021/06/21 06:38:27;;;;;;;4.30;3.30;;;23.50;91.30;;;;;;5048249;28;20638;-47
2021/06/21 06:40:55;;;;;;;4.40;3.27;;;23.70;90.90;;;;;;5048358;28;21187;-47
2021/06/21 06:43:23;;;;;;;7.50;3.70;;;23.50;90.80;;;;;;5044306;28;20699;-49
2021/06/21 06:45:51;;;;;;;8.00;2.93;;;23.80;91.20;;;;;;5036049;28;20724;-49
2021/06/21 06:48:18;;;;;;;8.23;3.47;;;23.80;90.50;;;;;;5028979;28;20667;-49
2021/06/21 06:50:45;;;;;;;10.07;3.03;;;23.60;89.50;;;;;;5029619;28;20619;-46
2021/06/21 06:53:15;;;;;;;6.33;2.93;;;23.60;90.40;;;;;;5029009;28;20684;-45
2021/06/21 06:58:28;;;;;;;3.50;2.27;;;23.60;90.50;;;;;;5029741;28;20607;-47
2021/06/21 07:00:56;;;;;;;6.93;2.60;;;23.80;90.00;;;;;;5029380;28;20631;-48
2021/06/21 07:03:23;;;;;;;5.47;3.10;;;23.80;90.10;;;;;;5029410;28;20681;-48
2021/06/21 07:05:50;;;;;;;11.03;2.73;;;23.60;89.50;;;;;;5030763;28;20674;-47
2021/06/21 07:08:17;;;;;;;9.07;2.70;;;23.80;90.40;;;;;;5032985;28;20654;-46
2021/06/21 07:10:44;;;;;;;4.90;2.53;;;24.10;89.50;;;;;;5049302;28;20712;-47
2021/06/21 07:13:12;;;;;;;2.90;1.67;;;24.20;88.30;;;;;;5051505;28;20630;-48
2021/06/21 07:15:41;;;;;;;4.23;2.03;;;24.10;87.90;;;;;;5051918;28;21074;-46
2021/06/21 07:18:08;;;;;;;9.90;2.90;;;24.40;87.70;;;;;;5053165;28;20603;-48
2021/06/21 07:20:35;;;;;;;2.77;2.10;;;24.30;86.80;;;;;;5053730;28;20621;-47
2021/06/21 07:23:03;;;;;;;8.80;3.00;;;24.40;87.30;;;;;;5053119;28;20630;-48
2021/06/21 07:25:30;;;;;;;4.43;1.90;;;24.60;85.80;;;;;;5052853;28;20695;-49
2021/06/21 07:27:57;;;;;;;4.93;3.00;;;24.50;85.60;;;;;;5052986;28;20689;-50
2021/06/21 07:30:25;;;;;;;2.50;2.30;;;24.40;86.20;;;;;;5052752;28;20636;-48
2021/06/21 07:32:53;;;;;;;6.13;2.17;;;24.50;86.40;;;;;;5053121;28;20715;-48
2021/06/21 07:35:20;;;;;;;11.40;2.80;;;24.60;85.80;;;;;;5053238;28;20712;-48
2021/06/21 07:37:48;;;;;;;6.50;3.00;;;24.80;85.10;;;;;;5052148;28;21268;-48
2021/06/21 07:40:15;;;;;;;7.77;3.27;;;25.00;84.40;;;;;;5052450;28;20622;-46
2021/06/21 07:42:42;;;;;;;5.00;2.20;;;25.00;81.90;;;;;;5053320;28;20703;-48
2021/06/21 07:45:11;;;;;;;5.97;2.57;;;24.80;83.10;;;;;;5052756;28;20621;-47
2021/06/21 07:47:38;;;;;;;3.43;2.50;;;24.70;83.80;;;;;;5056789;28;20669;-48
2021/06/21 07:50:08;;;;;;;5.20;2.33;;;24.60;84.20;;;;;;5072467;28;21171;-48
2021/06/21 07:52:35;;;;;;;3.80;2.60;;;24.50;82.10;;;;;;5073148;28;20628;-49
2021/06/21 07:55:02;;;;;;;3.73;2.20;;;24.20;84.00;;;;;;5072966;28;20633;-48
2021/06/21 07:57:30;;;;;;;4.10;2.00;;;24.10;82.90;;;;;;5071538;28;20625;-49
2021/06/21 07:59:57;;;;;;;2.07;1.60;;;23.90;85.00;;;;;;5072130;28;20629;-48
2021/06/21 08:02:24;;;;;;;8.20;2.70;;;23.80;84.80;;;;;;5071986;28;20621;-46
2021/06/21 08:04:51;;;;;;;8.27;1.93;;;23.80;86.30;;;;;;5071813;28;21236;-47
2021/06/21 08:07:20;;;;;;;9.87;2.23;;;23.60;85.00;;;;;;5071791;28;21201;-47
2021/06/21 08:09:47;;;;;;;3.60;1.87;;;23.50;85.70;;;;;;5055970;28;20993;-47
2021/06/21 08:12:15;;;;;;;3.33;2.17;;;23.50;85.90;;;;;;5032900;28;20631;-46
2021/06/21 08:14:43;;;;;;;3.77;2.40;;;23.50;86.00;;;;;;5032388;28;20626;-47
2021/06/21 08:17:10;;;;;;;3.40;2.40;;;23.40;86.60;;;;;;5031327;28;20665;-47
2021/06/21 08:19:37;;;;;;;2.53;1.60;;;23.70;87.30;;;;;;5031797;28;20635;-48
2021/06/21 08:22:05;;;;;;;2.03;1.80;;;23.70;84.70;;;;;;5031988;28;20689;-48
2021/06/21 08:24:33;;;;;;;3.23;1.67;;;23.90;85.80;;;;;;5032105;28;20631;-47
2021/06/21 08:27:02;;;;;;;6.47;2.73;;;23.90;84.70;;;;;;5031957;28;21223;-47
2021/06/21 08:29:29;;;;;;;2.33;1.90;;;24.10;85.40;;;;;;5032100;28;20736;-47
2021/06/21 08:31:57;;;;;;;9.37;2.60;;;24.40;83.50;;;;;;5032252;28;20627;-48
2021/06/21 08:34:24;;;;;;;5.20;1.97;;;24.30;83.00;;;;;;5031535;28;20627;-47
2021/06/21 08:36:51;;;;;;;3.10;2.03;;;24.50;82.30;;;;;;5031276;28;20736;-47
2021/06/21 08:39:18;;;;;;;1.57;1.47;;;24.40;81.20;;;;;;5030749;28;20685;-46
2021/06/21 08:41:47;;;;;;;3.17;1.80;;;24.70;80.80;;;;;;5031269;28;20623;-47
2021/06/21 08:44:14;;;;;;;2.47;1.40;;;24.50;79.90;;;;;;5031329;28;20623;-47
2021/06/21 08:46:42;;;;;;;3.93;1.87;;;24.60;81.20;;;;;;5031520;28;20655;-47
2021/06/21 08:49:09;;;;;;;7.00;1.50;;;24.60;79.60;;;;;;5031330;28;20647;-48
2021/06/21 08:51:37;;;;;;;3.23;2.20;;;24.50;78.80;;;;;;5030781;28;21187;-48
2021/06/21 08:54:04;;;;;;;4.23;2.27;;;24.40;79.80;;;;;;5030723;28;20680;-48
2021/06/21 08:56:31;;;;;;;3.23;1.73;;;24.40;79.40;;;;;;5031046;28;20663;-49
2021/06/21 08:59:00;;;;;;;2.80;1.90;;;24.50;79.60;;;;;;5030782;28;20692;-48
2021/06/21 09:01:27;;;;;;;3.43;2.20;;;24.80;79.20;;;;;;5031312;28;21210;-48
2021/06/21 09:03:54;;;;;;;5.10;2.23;;;25.20;78.60;;;;;;5031336;28;20627;-49
2021/06/21 09:06:22;;;;;;;4.30;2.37;;;25.10;77.60;;;;;;5030502;28;21285;-48
2021/06/21 09:08:54;;;;;;;3.43;2.23;;;25.20;77.80;;;;;;5030596;28;20709;-48
2021/06/21 09:11:22;;;;;;;3.10;2.17;;;25.10;75.90;;;;;;5030539;28;21253;-48
2021/06/21 09:13:50;;;;;;;3.00;1.57;;;25.00;76.90;;;;;;5031067;28;20631;-46
2021/06/21 09:16:19;;;;;;;4.83;2.80;;;24.90;76.60;;;;;;5031122;28;20658;-49
2021/06/21 09:18:47;;;;;;;3.40;1.90;;;24.80;76.30;;;;;;5030433;28;20627;-49
2021/06/21 09:21:27;;;;;;;2.17;1.97;;;24.80;77.30;;;;;;5030612;28;20631;-48
2021/06/21 09:23:55;;;;;;;2.87;2.23;;;25.20;74.80;;;;;;5030588;28;20637;-47
2021/06/21 09:26:24;;;;;;;4.83;1.90;;;25.40;74.00;;;;;;5031057;28;20689;-47
2021/06/21 09:28:51;;;;;;;4.60;3.57;;;25.40;72.70;;;;;;5030701;28;20687;-48
2021/06/21 09:31:20;;;;;;;4.13;2.03;;;25.40;72.70;;;;;;5030366;28;20622;-47
2021/06/21 09:33:48;;;;;;;3.80;1.90;;;25.50;71.90;;;;;;5030393;28;20710;-47
2021/06/21 09:36:26;;;;;;;3.23;2.67;;;25.30;71.40;;;;;;5030424;28;20713;-48
2021/06/21 09:39:15;;;;;;;5.10;1.90;;;25.20;71.50;;;;;;5030003;28;20627;-48
2021/06/21 09:41:42;;;;;;;4.30;1.93;;;25.30;71.40;;;;;;5030119;28;20984;-48
2021/06/21 09:44:09;;;;;;;5.30;2.47;;;25.20;70.00;;;;;;5029948;28;21214;-47
2021/06/21 09:46:38;;;;;;;6.97;2.40;;;25.10;71.80;;;;;;5030016;28;20663;-48
2021/06/21 09:49:07;;;;;;;5.37;2.33;;;25.10;70.70;;;;;;5029762;28;21231;-47
2021/06/21 09:51:35;;;;;;;5.53;2.87;;;25.20;72.30;;;;;;5029776;28;20631;-47
2021/06/21 09:54:06;;;;;;;2.90;2.60;;;25.30;72.00;;;;;;5030173;28;20720;-48
2021/06/21 09:56:38;;;;;;;6.33;2.97;;;25.20;70.10;;;;;;5029607;28;20655;-47
2021/06/21 09:59:22;;;;;;;2.73;2.40;;;25.00;70.10;;;;;;5029719;28;20693;-48
2021/06/21 10:02:04;;;;;;;4.23;1.97;;;24.80;72.50;;;;;;5030399;28;20627;-47
2021/06/21 10:04:31;;;;;;;5.40;2.40;;;25.00;71.30;;;;;;5029800;28;20627;-47
2021/06/21 10:06:58;;;;;;;5.00;2.40;;;24.80;70.40;;;;;;5029578;28;20722;-48
2021/06/21 10:09:26;;;;;;;8.13;3.23;;;24.90;73.20;;;;;;5029713;28;20685;-47
2021/06/21 10:11:54;;;;;;;6.00;2.67;;;25.10;71.90;;;;;;5029962;28;20631;-48
2021/06/21 10:14:22;;;;;;;3.77;2.20;;;25.40;70.30;;;;;;5029660;28;20696;-48
2021/06/21 10:16:50;;;;;;;2.50;1.50;;;25.70;69.40;;;;;;5029479;28;20986;-48
2021/06/21 10:19:21;;;;;;;2.80;2.27;;;25.60;68.10;;;;;;5029325;28;20624;-47
2021/06/21 10:21:52;;;;;;;2.43;1.60;;;25.70;68.80;;;;;;5030767;28;20697;-47
2021/06/21 10:24:19;;;;;;;4.17;1.90;;;25.80;67.70;;;;;;5030496;28;21239;-46
2021/06/21 10:26:50;;;;;;;2.13;1.33;;;25.60;67.10;;;;;;5030417;28;20689;-50
2021/06/21 10:29:17;;;;;;;2.47;1.97;;;25.50;67.50;;;;;;5030358;28;21262;-48
2021/06/21 10:31:44;;;;;;;4.20;2.47;;;25.40;69.50;;;;;;5030257;28;20815;-48
2021/06/21 10:34:12;;;;;;;2.17;1.30;;;25.50;69.10;;;;;;5030144;28;20681;-49
2021/06/21 10:36:44;;;;;;;4.07;1.90;;;25.50;68.20;;;;;;5030045;28;20732;-48
2021/06/21 10:39:12;;;;;;;3.63;1.97;;;25.50;68.00;;;;;;5032275;28;20747;-48
2021/06/21 10:41:39;;;;;;;6.67;2.17;;;25.50;68.90;;;;;;5051557;28;20691;-47
2021/06/21 10:44:06;;;;;;;2.17;1.70;;;25.60;67.70;;;;;;5053155;28;21192;-47
2021/06/21 10:46:34;;;;;;;3.10;2.40;;;25.60;67.20;;;;;;5052997;28;20654;-48
2021/06/21 10:49:30;;;;;;;2.30;2.10;;;25.60;67.10;;;;;;5052942;28;20658;-47
2021/06/21 10:51:59;;;;;;;5.73;2.57;;;25.60;68.00;;;;;;5053048;28;20672;-48
2021/06/21 10:54:27;;;;;;;3.60;1.67;;;25.60;66.80;;;;;;5052819;28;20764;-47
2021/06/21 10:56:55;;;;;;;3.50;2.57;;;25.60;66.50;;;;;;5053809;28;20657;-47
2021/06/21 10:59:23;;;;;;;2.57;1.93;;;25.50;67.00;;;;;;5053810;28;20622;-48
2021/06/21 11:01:51;;;;;;;5.27;2.10;;;25.40;66.60;;;;;;5053325;28;20993;-48
2021/06/21 11:04:45;;;;;;;2.33;1.43;;;25.30;68.00;;;;;;5053414;28;20633;-48
2021/06/21 11:07:14;;;;;;;5.00;2.20;;;25.30;68.50;;;;;;5038019;28;21057;-46
2021/06/21 11:09:44;;;;;;;3.47;1.40;;;25.80;66.50;;;;;;5052256;28;20765;-47
2021/06/21 11:12:36;;;;;;;3.33;1.43;;;25.80;65.70;;;;;;5051949;28;21163;-48
2021/06/21 11:15:15;;;;;;;2.03;1.80;;;25.90;67.00;;;;;;5052064;28;20630;-49
2021/06/21 11:17:59;;;;;;;4.17;1.70;;;26.10;65.10;;;;;;5052329;28;20961;-49
2021/06/21 11:20:37;;;;;;;7.20;1.80;;;26.20;63.80;;;;;;5052872;28;20629;-50
2021/06/21 11:23:07;;;;;;;5.07;2.07;;;26.30;64.80;;;;;;5052661;28;20680;-48
2021/06/21 11:25:35;;;;;;;2.73;2.03;;;26.40;63.00;;;;;;5052419;28;20670;-49
2021/06/21 11:28:02;;;;;;;2.40;2.20;;;26.30;62.60;;;;;;5052594;28;20622;-49
2021/06/21 11:30:38;;;;;;;2.23;2.03;;;26.20;62.70;;;;;;5052451;28;20795;-48
2021/06/21 11:33:10;;;;;;;2.30;1.73;;;26.40;63.00;;;;;;5053748;28;20655;-48
2021/06/21 11:35:56;;;;;;;4.50;2.20;;;26.60;62.30;;;;;;5052865;28;21034;-49
2021/06/21 11:38:30;;;;;;;5.57;2.30;;;26.70;60.30;;;;;;5052435;28;20656;-49
2021/06/21 11:41:20;;;;;;;3.47;2.67;;;26.70;60.30;;;;;;5052693;28;20621;-49
2021/06/21 11:43:48;;;;;;;3.87;2.13;;;26.70;60.70;;;;;;5053164;28;20997;-48
2021/06/21 11:46:41;;;;;;;3.87;2.00;;;26.90;59.90;;;;;;5052820;28;20638;-47
2021/06/21 11:49:09;;;;;;;7.07;1.87;;;26.80;59.50;;;;;;5051873;28;20656;-48
2021/06/21 11:51:36;;;;;;;3.30;2.60;;;26.80;59.70;;;;;;5051907;28;20749;-47
2021/06/21 11:54:05;;;;;;;3.33;2.20;;;26.80;60.00;;;;;;5052354;28;20637;-47
2021/06/21 11:56:32;;;;;;;2.73;1.47;;;26.90;58.80;;;;;;5052021;28;20665;-46
2021/06/21 11:59:00;;;;;;;2.33;1.83;;;27.00;58.60;;;;;;5051246;28;20626;-48
2021/06/21 12:01:28;;;;;;;2.97;2.23;;;27.00;59.40;;;;;;5051710;28;21017;-49
2021/06/21 12:03:55;;;;;;;2.80;2.23;;;26.90;58.40;;;;;;5051477;28;21219;-49
2021/06/21 12:06:23;;;;;;;1.87;1.77;;;26.80;58.90;;;;;;5051967;28;20800;-50
2021/06/21 12:08:50;;;;;;;3.60;2.77;;;26.90;59.60;;;;;;5051941;28;21221;-49
2021/06/21 12:11:19;;;;;;;3.10;2.07;;;26.80;59.50;;;;;;5051346;28;20715;-49
2021/06/21 12:13:55;;;;;;;2.20;1.90;;;26.80;59.70;;;;;;5051366;28;20685;-48
2021/06/21 12:16:22;;;;;;;3.47;2.03;;;26.80;59.40;;;;;;5051812;28;21224;-48
2021/06/21 12:18:53;;;;;;;2.20;1.90;;;26.90;58.40;;;;;;5051360;28;20724;-48
2021/06/21 12:21:31;;;;;;;2.07;1.87;;;26.80;58.50;;;;;;5051915;28;20622;-48
2021/06/21 12:23:58;;;;;;;3.27;1.97;;;26.80;58.10;;;;;;5051803;28;20626;-48
2021/06/21 12:26:37;;;;;;;2.83;2.53;;;26.70;59.20;;;;;;5051716;28;20710;-50
2021/06/21 12:29:21;;;;;;;4.80;2.40;;;26.70;59.20;;;;;;5051835;28;20637;-49
2021/06/21 12:31:53;;;;;;;3.40;1.80;;;26.70;58.90;;;;;;5051729;28;20755;-48
2021/06/21 12:34:48;;;;;;;4.03;2.43;;;26.60;59.00;;;;;;5051583;28;20725;-46
2021/06/21 12:37:17;;;;;;;3.20;1.97;;;26.90;58.40;;;;;;5050764;28;21029;-49
2021/06/21 12:39:44;;;;;;;3.13;1.93;;;26.90;58.00;;;;;;5051460;28;20642;-50
2021/06/21 12:42:14;;;;;;;2.13;1.73;;;26.80;58.10;;;;;;5051300;28;20630;-49
2021/06/21 12:44:42;;;;;;;3.27;1.87;;;26.70;58.30;;;;;;5051909;28;20637;-49
2021/06/21 12:47:26;;;;;;;3.73;2.27;;;26.90;58.60;;;;;;5051609;28;20649;-48
2021/06/21 12:49:55;;;;;;;5.67;2.60;;;27.20;58.40;;;;;;5050814;28;20662;-48
2021/06/21 12:52:23;;;;;;;3.13;1.73;;;27.50;57.50;;;;;;5050703;28;20692;-51
2021/06/21 12:54:56;;;;;;;6.20;2.23;;;27.60;55.60;;;;;;5051197;28;21211;-50
2021/06/21 12:57:24;;;;;;;2.27;1.97;;;27.50;55.90;;;;;;5050430;28;21028;-48